sensor_id;sensor_type;location;lat;lon;timestamp;P1;durP1;ratioP1;P2;durP2;ratioP2
25153;SDS011;47555;51.038;6.280;2024-01-10T00:02:28;9.95;;;5.65;;
25153;SDS011;47555;51.038;6.280;2024-01-10T00:04:54;9.80;;;5.70;;
25153;SDS011;47555;51.038;6.280;2024-01-10T00:07:20;9.68;;;5.97;;
25153;SDS011;47555;51.038;6.280;2024-01-10T00:09:46;8.15;;;5.40;;
25153;SDS011;47555;51.038;6.280;2024-01-10T00:12:12;9.85;;;5.65;;
25153;SDS011;47555;51.038;6.280;2024-01-10T00:14:38;8.90;;;5.53;;
25153;SDS011;47555;51.038;6.280;2024-01-10T00:17:04;8.07;;;5.10;;
25153;SDS011;47555;51.038;6.280;2024-01-10T00:19:30;12.35;;;5.70;;
25153;SDS011;47555;51.038;6.280;2024-01-10T00:21:55;8.20;;;4.65;;
25153;SDS011;47555;51.038;6.280;2024-01-10T00:24:21;11.07;;;5.82;;
25153;SDS011;47555;51.038;6.280;2024-01-10T00:26:47;13.70;;;5.45;;
25153;SDS011;47555;51.038;6.280;2024-01-10T00:29:13;9.57;;;5.78;;
25153;SDS011;47555;51.038;6.280;2024-01-10T00:31:39;15.35;;;5.63;;
25153;SDS011;47555;51.038;6.280;2024-01-10T00:34:05;13.10;;;5.78;;
25153;SDS011;47555;51.038;6.280;2024-01-10T00:36:31;13.85;;;6.55;;
25153;SDS011;47555;51.038;6.280;2024-01-10T00:38:57;9.38;;;5.07;;
25153;SDS011;47555;51.038;6.280;2024-01-10T00:41:23;11.20;;;4.97;;
25153;SDS011;47555;51.038;6.280;2024-01-10T00:43:49;12.73;;;6.10;;
25153;SDS011;47555;51.038;6.280;2024-01-10T00:46:15;12.35;;;5.95;;
25153;SDS011;47555;51.038;6.280;2024-01-10T00:48:41;12.40;;;5.35;;
25153;SDS011;47555;51.038;6.280;2024-01-10T00:51:07;8.40;;;5.57;;
25153;SDS011;47555;51.038;6.280;2024-01-10T00:53:34;10.98;;;5.65;;
25153;SDS011;47555;51.038;6.280;2024-01-10T00:56:00;13.13;;;5.60;;
25153;SDS011;47555;51.038;6.280;2024-01-10T00:58:26;9.77;;;5.38;;
25153;SDS011;47555;51.038;6.280;2024-01-10T01:00:52;8.75;;;5.07;;
25153;SDS011;47555;51.038;6.280;2024-01-10T01:03:18;9.35;;;4.55;;
25153;SDS011;47555;51.038;6.280;2024-01-10T01:05:44;10.02;;;5.18;;
25153;SDS011;47555;51.038;6.280;2024-01-10T01:08:10;11.65;;;5.43;;
25153;SDS011;47555;51.038;6.280;2024-01-10T01:10:36;10.25;;;5.75;;
25153;SDS011;47555;51.038;6.280;2024-01-10T01:13:02;9.35;;;5.30;;
25153;SDS011;47555;51.038;6.280;2024-01-10T01:15:28;7.55;;;4.95;;
25153;SDS011;47555;51.038;6.280;2024-01-10T01:17:54;15.25;;;6.60;;
25153;SDS011;47555;51.038;6.280;2024-01-10T01:20:19;13.18;;;5.75;;
25153;SDS011;47555;51.038;6.280;2024-01-10T01:22:45;13.32;;;5.75;;
25153;SDS011;47555;51.038;6.280;2024-01-10T01:25:11;9.60;;;5.43;;
25153;SDS011;47555;51.038;6.280;2024-01-10T01:27:37;9.07;;;5.18;;
25153;SDS011;47555;51.038;6.280;2024-01-10T01:30:03;8.25;;;5.38;;
25153;SDS011;47555;51.038;6.280;2024-01-10T01:32:32;13.05;;;5.72;;
25153;SDS011;47555;51.038;6.280;2024-01-10T01:34:58;11.32;;;5.32;;
25153;SDS011;47555;51.038;6.280;2024-01-10T01:37:24;10.63;;;5.40;;
25153;SDS011;47555;51.038;6.280;2024-01-10T01:39:50;11.80;;;5.68;;
25153;SDS011;47555;51.038;6.280;2024-01-10T01:42:16;13.70;;;6.90;;
25153;SDS011;47555;51.038;6.280;2024-01-10T01:44:42;10.02;;;5.45;;
25153;SDS011;47555;51.038;6.280;2024-01-10T01:47:10;10.20;;;5.13;;
25153;SDS011;47555;51.038;6.280;2024-01-10T01:49:37;12.23;;;5.35;;
25153;SDS011;47555;51.038;6.280;2024-01-10T01:52:03;15.52;;;5.90;;
25153;SDS011;47555;51.038;6.280;2024-01-10T01:54:29;10.77;;;6.18;;
25153;SDS011;47555;51.038;6.280;2024-01-10T01:56:56;13.35;;;5.53;;
25153;SDS011;47555;51.038;6.280;2024-01-10T01:59:23;8.73;;;5.32;;
25153;SDS011;47555;51.038;6.280;2024-01-10T02:01:49;10.50;;;5.50;;
25153;SDS011;47555;51.038;6.280;2024-01-10T02:04:16;11.82;;;5.43;;
25153;SDS011;47555;51.038;6.280;2024-01-10T02:06:42;17.08;;;6.20;;
25153;SDS011;47555;51.038;6.280;2024-01-10T02:09:08;11.60;;;5.25;;
25153;SDS011;47555;51.038;6.280;2024-01-10T02:11:37;10.02;;;5.53;;
25153;SDS011;47555;51.038;6.280;2024-01-10T02:14:03;10.50;;;5.22;;
25153;SDS011;47555;51.038;6.280;2024-01-10T02:16:29;12.48;;;6.28;;
25153;SDS011;47555;51.038;6.280;2024-01-10T02:18:55;11.00;;;5.85;;
25153;SDS011;47555;51.038;6.280;2024-01-10T02:21:21;13.27;;;6.50;;
25153;SDS011;47555;51.038;6.280;2024-01-10T02:23:47;12.63;;;5.90;;
25153;SDS011;47555;51.038;6.280;2024-01-10T02:26:14;13.30;;;6.07;;
25153;SDS011;47555;51.038;6.280;2024-01-10T02:28:40;10.98;;;6.07;;
25153;SDS011;47555;51.038;6.280;2024-01-10T02:31:06;14.38;;;6.30;;
25153;SDS011;47555;51.038;6.280;2024-01-10T02:33:32;10.20;;;5.35;;
25153;SDS011;47555;51.038;6.280;2024-01-10T02:35:58;10.02;;;4.68;;
25153;SDS011;47555;51.038;6.280;2024-01-10T02:38:24;10.38;;;5.38;;
25153;SDS011;47555;51.038;6.280;2024-01-10T02:40:50;10.05;;;4.97;;
25153;SDS011;47555;51.038;6.280;2024-01-10T02:43:16;12.90;;;5.28;;
25153;SDS011;47555;51.038;6.280;2024-01-10T02:45:42;12.70;;;5.57;;
25153;SDS011;47555;51.038;6.280;2024-01-10T02:48:08;12.50;;;6.15;;
25153;SDS011;47555;51.038;6.280;2024-01-10T02:50:34;11.48;;;5.32;;
25153;SDS011;47555;51.038;6.280;2024-01-10T02:53:00;12.57;;;5.97;;
25153;SDS011;47555;51.038;6.280;2024-01-10T02:55:26;12.60;;;6.75;;
25153;SDS011;47555;51.038;6.280;2024-01-10T02:57:52;9.93;;;4.70;;
25153;SDS011;47555;51.038;6.280;2024-01-10T03:00:18;10.77;;;5.63;;
25153;SDS011;47555;51.038;6.280;2024-01-10T03:02:43;11.50;;;4.72;;
25153;SDS011;47555;51.038;6.280;2024-01-10T03:05:09;15.70;;;5.57;;
25153;SDS011;47555;51.038;6.280;2024-01-10T03:07:35;6.38;;;4.07;;
25153;SDS011;47555;51.038;6.280;2024-01-10T03:10:01;12.73;;;5.82;;
25153;SDS011;47555;51.038;6.280;2024-01-10T03:12:28;9.90;;;6.53;;
25153;SDS011;47555;51.038;6.280;2024-01-10T03:14:54;9.18;;;5.57;;
25153;SDS011;47555;51.038;6.280;2024-01-10T03:17:20;10.43;;;5.47;;
25153;SDS011;47555;51.038;6.280;2024-01-10T03:19:47;12.60;;;5.57;;
25153;SDS011;47555;51.038;6.280;2024-01-10T03:22:13;8.75;;;5.10;;
25153;SDS011;47555;51.038;6.280;2024-01-10T03:24:39;9.48;;;5.55;;
25153;SDS011;47555;51.038;6.280;2024-01-10T03:27:05;11.77;;;5.68;;
25153;SDS011;47555;51.038;6.280;2024-01-10T03:29:31;9.98;;;5.45;;
25153;SDS011;47555;51.038;6.280;2024-01-10T03:31:57;10.73;;;5.20;;
25153;SDS011;47555;51.038;6.280;2024-01-10T03:34:23;11.70;;;5.30;;
25153;SDS011;47555;51.038;6.280;2024-01-10T03:36:49;11.43;;;5.78;;
25153;SDS011;47555;51.038;6.280;2024-01-10T03:39:15;11.15;;;5.35;;
25153;SDS011;47555;51.038;6.280;2024-01-10T03:41:41;12.82;;;4.80;;
25153;SDS011;47555;51.038;6.280;2024-01-10T03:44:07;7.90;;;4.93;;
25153;SDS011;47555;51.038;6.280;2024-01-10T03:46:33;11.45;;;5.85;;
25153;SDS011;47555;51.038;6.280;2024-01-10T03:48:59;7.75;;;4.50;;
25153;SDS011;47555;51.038;6.280;2024-01-10T03:51:24;14.13;;;5.40;;
25153;SDS011;47555;51.038;6.280;2024-01-10T03:53:51;10.57;;;5.75;;
25153;SDS011;47555;51.038;6.280;2024-01-10T03:56:18;13.90;;;5.35;;
25153;SDS011;47555;51.038;6.280;2024-01-10T03:58:44;9.30;;;4.95;;
25153;SDS011;47555;51.038;6.280;2024-01-10T04:01:13;12.98;;;5.50;;
25153;SDS011;47555;51.038;6.280;2024-01-10T04:03:39;9.25;;;3.95;;
25153;SDS011;47555;51.038;6.280;2024-01-10T04:06:09;10.40;;;5.30;;
25153;SDS011;47555;51.038;6.280;2024-01-10T04:08:35;12.18;;;5.85;;
25153;SDS011;47555;51.038;6.280;2024-01-10T04:11:01;10.35;;;5.50;;
25153;SDS011;47555;51.038;6.280;2024-01-10T04:13:28;8.65;;;4.30;;
25153;SDS011;47555;51.038;6.280;2024-01-10T04:15:54;10.88;;;4.95;;
25153;SDS011;47555;51.038;6.280;2024-01-10T04:18:20;8.57;;;4.57;;
25153;SDS011;47555;51.038;6.280;2024-01-10T04:20:46;7.10;;;4.28;;
25153;SDS011;47555;51.038;6.280;2024-01-10T04:23:12;9.63;;;5.18;;
25153;SDS011;47555;51.038;6.280;2024-01-10T04:25:38;7.95;;;4.80;;
25153;SDS011;47555;51.038;6.280;2024-01-10T04:28:04;7.68;;;5.03;;
25153;SDS011;47555;51.038;6.280;2024-01-10T04:30:30;8.25;;;5.57;;
25153;SDS011;47555;51.038;6.280;2024-01-10T04:32:59;8.35;;;4.72;;
25153;SDS011;47555;51.038;6.280;2024-01-10T04:35:25;7.20;;;4.53;;
25153;SDS011;47555;51.038;6.280;2024-01-10T04:37:51;10.43;;;4.32;;
25153;SDS011;47555;51.038;6.280;2024-01-10T04:40:17;6.10;;;4.45;;
25153;SDS011;47555;51.038;6.280;2024-01-10T04:42:43;11.75;;;5.35;;
25153;SDS011;47555;51.038;6.280;2024-01-10T04:45:10;9.20;;;4.95;;
25153;SDS011;47555;51.038;6.280;2024-01-10T04:47:36;8.98;;;4.75;;
25153;SDS011;47555;51.038;6.280;2024-01-10T04:50:02;8.73;;;4.30;;
25153;SDS011;47555;51.038;6.280;2024-01-10T04:52:27;9.60;;;5.43;;
25153;SDS011;47555;51.038;6.280;2024-01-10T04:54:53;8.82;;;4.93;;
25153;SDS011;47555;51.038;6.280;2024-01-10T04:57:19;10.57;;;5.38;;
25153;SDS011;47555;51.038;6.280;2024-01-10T04:59:45;10.05;;;5.68;;
25153;SDS011;47555;51.038;6.280;2024-01-10T05:02:12;9.98;;;4.85;;
25153;SDS011;47555;51.038;6.280;2024-01-10T05:04:38;9.02;;;4.93;;
25153;SDS011;47555;51.038;6.280;2024-01-10T05:07:04;12.65;;;4.88;;
25153;SDS011;47555;51.038;6.280;2024-01-10T05:09:30;11.30;;;5.53;;
25153;SDS011;47555;51.038;6.280;2024-01-10T05:11:56;7.95;;;4.90;;
25153;SDS011;47555;51.038;6.280;2024-01-10T05:14:22;14.25;;;5.65;;
25153;SDS011;47555;51.038;6.280;2024-01-10T05:16:48;8.43;;;5.05;;
25153;SDS011;47555;51.038;6.280;2024-01-10T05:19:14;8.60;;;4.43;;
25153;SDS011;47555;51.038;6.280;2024-01-10T05:21:40;12.13;;;5.00;;
25153;SDS011;47555;51.038;6.280;2024-01-10T05:24:06;11.05;;;4.78;;
25153;SDS011;47555;51.038;6.280;2024-01-10T05:26:32;10.30;;;4.88;;
25153;SDS011;47555;51.038;6.280;2024-01-10T05:28:58;9.15;;;4.40;;
25153;SDS011;47555;51.038;6.280;2024-01-10T05:31:24;13.25;;;5.18;;
25153;SDS011;47555;51.038;6.280;2024-01-10T05:33:50;11.07;;;5.38;;
25153;SDS011;47555;51.038;6.280;2024-01-10T05:36:16;10.50;;;5.20;;
25153;SDS011;47555;51.038;6.280;2024-01-10T05:38:41;11.75;;;5.47;;
25153;SDS011;47555;51.038;6.280;2024-01-10T05:41:07;11.57;;;5.07;;
25153;SDS011;47555;51.038;6.280;2024-01-10T05:43:33;8.57;;;5.20;;
25153;SDS011;47555;51.038;6.280;2024-01-10T05:46:00;12.82;;;5.72;;
25153;SDS011;47555;51.038;6.280;2024-01-10T05:48:26;9.95;;;4.85;;
25153;SDS011;47555;51.038;6.280;2024-01-10T05:50:52;10.07;;;4.80;;
25153;SDS011;47555;51.038;6.280;2024-01-10T05:53:17;7.25;;;4.15;;
25153;SDS011;47555;51.038;6.280;2024-01-10T05:55:44;9.52;;;5.10;;
25153;SDS011;47555;51.038;6.280;2024-01-10T05:58:10;9.80;;;4.50;;
25153;SDS011;47555;51.038;6.280;2024-01-10T06:00:36;12.43;;;5.00;;
25153;SDS011;47555;51.038;6.280;2024-01-10T06:03:02;13.40;;;5.55;;
25153;SDS011;47555;51.038;6.280;2024-01-10T06:05:28;9.98;;;4.85;;
25153;SDS011;47555;51.038;6.280;2024-01-10T06:07:56;9.10;;;4.90;;
25153;SDS011;47555;51.038;6.280;2024-01-10T06:10:22;13.13;;;5.47;;
25153;SDS011;47555;51.038;6.280;2024-01-10T06:12:48;11.38;;;5.20;;
25153;SDS011;47555;51.038;6.280;2024-01-10T06:15:14;9.55;;;5.13;;
25153;SDS011;47555;51.038;6.280;2024-01-10T06:17:40;13.90;;;4.95;;
25153;SDS011;47555;51.038;6.280;2024-01-10T06:20:06;13.43;;;5.63;;
25153;SDS011;47555;51.038;6.280;2024-01-10T06:22:32;11.25;;;6.47;;
25153;SDS011;47555;51.038;6.280;2024-01-10T06:24:58;14.20;;;5.50;;
25153;SDS011;47555;51.038;6.280;2024-01-10T06:27:24;8.10;;;4.40;;
25153;SDS011;47555;51.038;6.280;2024-01-10T06:29:50;11.00;;;5.28;;
25153;SDS011;47555;51.038;6.280;2024-01-10T06:32:16;10.45;;;4.70;;
25153;SDS011;47555;51.038;6.280;2024-01-10T06:34:42;7.88;;;6.03;;
25153;SDS011;47555;51.038;6.280;2024-01-10T06:37:08;11.57;;;5.40;;
25153;SDS011;47555;51.038;6.280;2024-01-10T06:39:34;11.77;;;5.03;;
25153;SDS011;47555;51.038;6.280;2024-01-10T06:42:00;9.40;;;4.57;;
25153;SDS011;47555;51.038;6.280;2024-01-10T06:44:28;10.38;;;5.63;;
25153;SDS011;47555;51.038;6.280;2024-01-10T06:46:54;8.77;;;4.65;;
25153;SDS011;47555;51.038;6.280;2024-01-10T06:49:20;9.70;;;5.28;;
25153;SDS011;47555;51.038;6.280;2024-01-10T06:51:46;12.27;;;5.30;;
25153;SDS011;47555;51.038;6.280;2024-01-10T06:54:12;9.65;;;4.22;;
25153;SDS011;47555;51.038;6.280;2024-01-10T06:56:39;9.55;;;5.45;;
25153;SDS011;47555;51.038;6.280;2024-01-10T06:59:06;13.65;;;6.60;;
25153;SDS011;47555;51.038;6.280;2024-01-10T07:01:32;12.43;;;5.28;;
25153;SDS011;47555;51.038;6.280;2024-01-10T07:03:58;10.85;;;5.43;;
25153;SDS011;47555;51.038;6.280;2024-01-10T07:06:24;11.50;;;5.05;;
25153;SDS011;47555;51.038;6.280;2024-01-10T07:08:50;9.05;;;5.30;;
25153;SDS011;47555;51.038;6.280;2024-01-10T07:11:16;10.00;;;5.65;;
25153;SDS011;47555;51.038;6.280;2024-01-10T07:13:42;12.45;;;5.22;;
25153;SDS011;47555;51.038;6.280;2024-01-10T07:16:09;11.80;;;4.95;;
25153;SDS011;47555;51.038;6.280;2024-01-10T07:18:35;12.43;;;6.15;;
25153;SDS011;47555;51.038;6.280;2024-01-10T07:21:01;7.35;;;5.82;;
25153;SDS011;47555;51.038;6.280;2024-01-10T07:23:27;11.90;;;6.25;;
25153;SDS011;47555;51.038;6.280;2024-01-10T07:25:53;10.52;;;5.45;;
25153;SDS011;47555;51.038;6.280;2024-01-10T07:28:19;10.73;;;5.60;;
25153;SDS011;47555;51.038;6.280;2024-01-10T07:30:45;13.95;;;6.20;;
25153;SDS011;47555;51.038;6.280;2024-01-10T07:33:11;14.68;;;6.88;;
25153;SDS011;47555;51.038;6.280;2024-01-10T07:35:37;11.50;;;5.97;;
25153;SDS011;47555;51.038;6.280;2024-01-10T07:38:04;11.05;;;6.60;;
25153;SDS011;47555;51.038;6.280;2024-01-10T07:40:32;14.15;;;6.32;;
25153;SDS011;47555;51.038;6.280;2024-01-10T07:42:58;10.45;;;5.13;;
25153;SDS011;47555;51.038;6.280;2024-01-10T07:45:24;12.40;;;5.88;;
25153;SDS011;47555;51.038;6.280;2024-01-10T07:47:50;12.95;;;6.10;;
25153;SDS011;47555;51.038;6.280;2024-01-10T07:50:16;13.07;;;5.88;;
25153;SDS011;47555;51.038;6.280;2024-01-10T07:52:44;11.75;;;5.57;;
25153;SDS011;47555;51.038;6.280;2024-01-10T07:55:11;14.07;;;6.57;;
25153;SDS011;47555;51.038;6.280;2024-01-10T07:57:37;11.73;;;6.35;;
25153;SDS011;47555;51.038;6.280;2024-01-10T08:00:06;9.27;;;5.50;;
25153;SDS011;47555;51.038;6.280;2024-01-10T08:02:35;15.43;;;6.50;;
25153;SDS011;47555;51.038;6.280;2024-01-10T08:05:02;11.90;;;4.90;;
25153;SDS011;47555;51.038;6.280;2024-01-10T08:09:59;11.43;;;6.05;;
25153;SDS011;47555;51.038;6.280;2024-01-10T08:12:25;12.35;;;5.88;;
25153;SDS011;47555;51.038;6.280;2024-01-10T08:14:52;14.32;;;6.10;;
25153;SDS011;47555;51.038;6.280;2024-01-10T08:17:17;13.82;;;6.85;;
25153;SDS011;47555;51.038;6.280;2024-01-10T08:19:44;8.10;;;5.95;;
25153;SDS011;47555;51.038;6.280;2024-01-10T08:22:10;9.02;;;5.63;;
25153;SDS011;47555;51.038;6.280;2024-01-10T08:24:38;13.55;;;5.93;;
25153;SDS011;47555;51.038;6.280;2024-01-10T08:27:04;11.45;;;5.88;;
25153;SDS011;47555;51.038;6.280;2024-01-10T08:29:30;11.95;;;5.45;;
25153;SDS011;47555;51.038;6.280;2024-01-10T08:31:56;11.35;;;6.72;;
25153;SDS011;47555;51.038;6.280;2024-01-10T08:34:23;10.20;;;5.95;;
25153;SDS011;47555;51.038;6.280;2024-01-10T08:36:49;10.07;;;6.65;;
25153;SDS011;47555;51.038;6.280;2024-01-10T08:39:16;9.82;;;5.88;;
25153;SDS011;47555;51.038;6.280;2024-01-10T08:41:42;16.25;;;6.47;;
25153;SDS011;47555;51.038;6.280;2024-01-10T08:44:09;11.50;;;5.90;;
25153;SDS011;47555;51.038;6.280;2024-01-10T08:46:35;12.13;;;5.72;;
25153;SDS011;47555;51.038;6.280;2024-01-10T08:49:01;16.75;;;6.03;;
25153;SDS011;47555;51.038;6.280;2024-01-10T08:51:27;13.85;;;6.32;;
25153;SDS011;47555;51.038;6.280;2024-01-10T08:53:53;11.40;;;5.75;;
25153;SDS011;47555;51.038;6.280;2024-01-10T08:56:20;12.82;;;6.75;;
25153;SDS011;47555;51.038;6.280;2024-01-10T08:58:46;19.30;;;7.78;;
25153;SDS011;47555;51.038;6.280;2024-01-10T09:01:12;12.52;;;6.97;;
25153;SDS011;47555;51.038;6.280;2024-01-10T09:03:37;15.10;;;6.47;;
25153;SDS011;47555;51.038;6.280;2024-01-10T09:06:04;14.02;;;6.35;;
25153;SDS011;47555;51.038;6.280;2024-01-10T09:08:30;16.95;;;6.50;;
25153;SDS011;47555;51.038;6.280;2024-01-10T09:10:56;13.63;;;6.70;;
25153;SDS011;47555;51.038;6.280;2024-01-10T09:13:22;11.95;;;6.60;;
25153;SDS011;47555;51.038;6.280;2024-01-10T09:15:48;17.75;;;6.60;;
25153;SDS011;47555;51.038;6.280;2024-01-10T09:18:14;14.68;;;6.78;;
25153;SDS011;47555;51.038;6.280;2024-01-10T09:20:39;13.80;;;6.40;;
25153;SDS011;47555;51.038;6.280;2024-01-10T09:23:05;18.35;;;7.28;;
25153;SDS011;47555;51.038;6.280;2024-01-10T09:25:31;13.93;;;6.47;;
25153;SDS011;47555;51.038;6.280;2024-01-10T09:27:57;12.20;;;6.45;;
25153;SDS011;47555;51.038;6.280;2024-01-10T09:30:26;14.05;;;6.95;;
25153;SDS011;47555;51.038;6.280;2024-01-10T09:32:52;17.45;;;7.93;;
25153;SDS011;47555;51.038;6.280;2024-01-10T09:35:18;11.88;;;6.78;;
25153;SDS011;47555;51.038;6.280;2024-01-10T09:37:44;16.10;;;7.80;;
25153;SDS011;47555;51.038;6.280;2024-01-10T09:40:10;14.55;;;6.75;;
25153;SDS011;47555;51.038;6.280;2024-01-10T09:42:38;14.18;;;7.25;;
25153;SDS011;47555;51.038;6.280;2024-01-10T09:45:04;17.10;;;7.97;;
25153;SDS011;47555;51.038;6.280;2024-01-10T09:47:31;15.07;;;7.03;;
25153;SDS011;47555;51.038;6.280;2024-01-10T09:49:57;18.27;;;7.55;;
25153;SDS011;47555;51.038;6.280;2024-01-10T09:54:50;15.35;;;7.50;;
25153;SDS011;47555;51.038;6.280;2024-01-10T09:57:19;13.52;;;6.80;;
25153;SDS011;47555;51.038;6.280;2024-01-10T09:59:46;12.98;;;6.78;;
25153;SDS011;47555;51.038;6.280;2024-01-10T10:02:13;13.13;;;6.70;;
25153;SDS011;47555;51.038;6.280;2024-01-10T10:04:41;10.45;;;6.85;;
25153;SDS011;47555;51.038;6.280;2024-01-10T10:07:10;14.27;;;7.93;;
25153;SDS011;47555;51.038;6.280;2024-01-10T10:09:36;12.32;;;7.13;;
25153;SDS011;47555;51.038;6.280;2024-01-10T10:12:02;15.10;;;7.72;;
25153;SDS011;47555;51.038;6.280;2024-01-10T10:14:29;18.52;;;7.15;;
25153;SDS011;47555;51.038;6.280;2024-01-10T10:16:55;20.58;;;7.93;;
25153;SDS011;47555;51.038;6.280;2024-01-10T10:19:24;20.50;;;7.90;;
25153;SDS011;47555;51.038;6.280;2024-01-10T10:21:50;16.60;;;7.65;;
25153;SDS011;47555;51.038;6.280;2024-01-10T10:24:16;15.88;;;7.50;;
25153;SDS011;47555;51.038;6.280;2024-01-10T10:26:43;16.20;;;7.97;;
25153;SDS011;47555;51.038;6.280;2024-01-10T10:29:09;17.48;;;7.70;;
25153;SDS011;47555;51.038;6.280;2024-01-10T10:31:35;15.73;;;7.55;;
25153;SDS011;47555;51.038;6.280;2024-01-10T10:34:01;19.17;;;7.82;;
25153;SDS011;47555;51.038;6.280;2024-01-10T10:36:27;20.35;;;7.95;;
25153;SDS011;47555;51.038;6.280;2024-01-10T10:38:53;17.90;;;7.95;;
25153;SDS011;47555;51.038;6.280;2024-01-10T10:41:19;26.60;;;7.57;;
25153;SDS011;47555;51.038;6.280;2024-01-10T10:43:45;23.38;;;8.73;;
25153;SDS011;47555;51.038;6.280;2024-01-10T10:46:12;15.93;;;7.40;;
25153;SDS011;47555;51.038;6.280;2024-01-10T10:48:38;17.17;;;7.88;;
25153;SDS011;47555;51.038;6.280;2024-01-10T10:51:11;18.25;;;7.88;;
25153;SDS011;47555;51.038;6.280;2024-01-10T10:53:38;26.92;;;8.43;;
25153;SDS011;47555;51.038;6.280;2024-01-10T10:56:05;22.92;;;8.52;;
25153;SDS011;47555;51.038;6.280;2024-01-10T10:58:33;17.02;;;8.00;;
25153;SDS011;47555;51.038;6.280;2024-01-10T11:01:00;14.65;;;7.95;;
25153;SDS011;47555;51.038;6.280;2024-01-10T11:03:27;15.95;;;8.70;;
25153;SDS011;47555;51.038;6.280;2024-01-10T11:05:54;17.83;;;8.00;;
25153;SDS011;47555;51.038;6.280;2024-01-10T11:08:20;19.27;;;8.05;;
25153;SDS011;47555;51.038;6.280;2024-01-10T11:10:47;22.92;;;8.95;;
25153;SDS011;47555;51.038;6.280;2024-01-10T11:20:47;20.02;;;8.52;;
25153;SDS011;47555;51.038;6.280;2024-01-10T11:26:00;22.48;;;9.02;;
25153;SDS011;47555;51.038;6.280;2024-01-10T11:28:30;18.10;;;8.73;;
25153;SDS011;47555;51.038;6.280;2024-01-10T11:30:56;26.23;;;8.35;;
25153;SDS011;47555;51.038;6.280;2024-01-10T11:33:23;16.58;;;7.75;;
25153;SDS011;47555;51.038;6.280;2024-01-10T11:36:05;20.67;;;8.10;;
25153;SDS011;47555;51.038;6.280;2024-01-10T11:38:32;15.38;;;8.05;;
25153;SDS011;47555;51.038;6.280;2024-01-10T11:40:58;18.77;;;8.95;;
25153;SDS011;47555;51.038;6.280;2024-01-10T11:43:24;30.67;;;8.48;;
25153;SDS011;47555;51.038;6.280;2024-01-10T11:45:56;21.23;;;9.55;;
25153;SDS011;47555;51.038;6.280;2024-01-10T11:48:29;16.80;;;8.55;;
25153;SDS011;47555;51.038;6.280;2024-01-10T11:50:59;20.08;;;7.53;;
25153;SDS011;47555;51.038;6.280;2024-01-10T11:56:12;15.50;;;8.15;;
25153;SDS011;47555;51.038;6.280;2024-01-10T11:58:55;24.80;;;8.20;;
25153;SDS011;47555;51.038;6.280;2024-01-10T12:01:21;20.00;;;8.07;;
25153;SDS011;47555;51.038;6.280;2024-01-10T12:03:48;18.50;;;8.35;;
25153;SDS011;47555;51.038;6.280;2024-01-10T12:06:16;16.98;;;8.25;;
25153;SDS011;47555;51.038;6.280;2024-01-10T12:08:42;20.27;;;9.05;;
25153;SDS011;47555;51.038;6.280;2024-01-10T12:11:08;21.42;;;9.18;;
25153;SDS011;47555;51.038;6.280;2024-01-10T12:13:34;23.77;;;10.38;;
25153;SDS011;47555;51.038;6.280;2024-01-10T12:16:00;18.20;;;8.55;;
25153;SDS011;47555;51.038;6.280;2024-01-10T12:18:26;22.90;;;9.50;;
25153;SDS011;47555;51.038;6.280;2024-01-10T12:20:52;17.98;;;9.05;;
25153;SDS011;47555;51.038;6.280;2024-01-10T12:23:18;17.67;;;8.48;;
25153;SDS011;47555;51.038;6.280;2024-01-10T12:25:44;19.90;;;8.40;;
25153;SDS011;47555;51.038;6.280;2024-01-10T12:28:15;23.45;;;8.35;;
25153;SDS011;47555;51.038;6.280;2024-01-10T12:30:41;20.63;;;9.07;;
25153;SDS011;47555;51.038;6.280;2024-01-10T12:33:11;21.02;;;9.52;;
25153;SDS011;47555;51.038;6.280;2024-01-10T12:35:37;17.83;;;7.97;;
25153;SDS011;47555;51.038;6.280;2024-01-10T12:38:06;18.23;;;8.38;;
25153;SDS011;47555;51.038;6.280;2024-01-10T12:40:32;17.33;;;8.98;;
25153;SDS011;47555;51.038;6.280;2024-01-10T12:43:04;20.35;;;10.13;;
25153;SDS011;47555;51.038;6.280;2024-01-10T12:45:30;21.52;;;9.65;;
25153;SDS011;47555;51.038;6.280;2024-01-10T12:48:00;20.55;;;8.73;;
25153;SDS011;47555;51.038;6.280;2024-01-10T12:50:27;24.55;;;9.85;;
25153;SDS011;47555;51.038;6.280;2024-01-10T12:52:53;20.50;;;9.35;;
25153;SDS011;47555;51.038;6.280;2024-01-10T12:55:19;20.45;;;10.23;;
25153;SDS011;47555;51.038;6.280;2024-01-10T12:57:46;16.92;;;8.93;;
25153;SDS011;47555;51.038;6.280;2024-01-10T13:00:12;19.90;;;9.85;;
25153;SDS011;47555;51.038;6.280;2024-01-10T13:02:39;18.92;;;8.88;;
25153;SDS011;47555;51.038;6.280;2024-01-10T13:05:08;18.23;;;9.43;;
25153;SDS011;47555;51.038;6.280;2024-01-10T13:07:37;16.38;;;9.23;;
25153;SDS011;47555;51.038;6.280;2024-01-10T13:10:03;18.98;;;9.93;;
25153;SDS011;47555;51.038;6.280;2024-01-10T13:12:29;21.85;;;9.52;;
25153;SDS011;47555;51.038;6.280;2024-01-10T13:14:55;19.35;;;9.20;;
25153;SDS011;47555;51.038;6.280;2024-01-10T13:17:21;21.45;;;10.27;;
25153;SDS011;47555;51.038;6.280;2024-01-10T13:19:48;17.38;;;9.32;;
25153;SDS011;47555;51.038;6.280;2024-01-10T13:22:14;16.00;;;9.07;;
25153;SDS011;47555;51.038;6.280;2024-01-10T13:24:44;18.75;;;8.77;;
25153;SDS011;47555;51.038;6.280;2024-01-10T13:27:10;20.88;;;9.10;;
25153;SDS011;47555;51.038;6.280;2024-01-10T13:29:36;16.55;;;9.00;;
25153;SDS011;47555;51.038;6.280;2024-01-10T13:32:03;20.73;;;9.13;;
25153;SDS011;47555;51.038;6.280;2024-01-10T13:34:29;24.77;;;9.98;;
25153;SDS011;47555;51.038;6.280;2024-01-10T13:36:55;17.92;;;9.40;;
25153;SDS011;47555;51.038;6.280;2024-01-10T13:39:21;17.00;;;9.52;;
25153;SDS011;47555;51.038;6.280;2024-01-10T13:41:47;20.83;;;9.32;;
25153;SDS011;47555;51.038;6.280;2024-01-10T13:44:13;18.55;;;9.70;;
25153;SDS011;47555;51.038;6.280;2024-01-10T13:46:39;21.63;;;9.02;;
25153;SDS011;47555;51.038;6.280;2024-01-10T13:49:06;20.40;;;9.70;;
25153;SDS011;47555;51.038;6.280;2024-01-10T13:51:32;22.80;;;9.82;;
25153;SDS011;47555;51.038;6.280;2024-01-10T13:53:58;24.20;;;8.77;;
25153;SDS011;47555;51.038;6.280;2024-01-10T13:56:24;18.30;;;9.40;;
25153;SDS011;47555;51.038;6.280;2024-01-10T13:58:52;21.77;;;9.77;;
25153;SDS011;47555;51.038;6.280;2024-01-10T14:01:18;21.92;;;9.50;;
25153;SDS011;47555;51.038;6.280;2024-01-10T14:03:44;19.83;;;9.65;;
25153;SDS011;47555;51.038;6.280;2024-01-10T14:06:10;19.85;;;9.65;;
25153;SDS011;47555;51.038;6.280;2024-01-10T14:08:36;25.98;;;10.15;;
25153;SDS011;47555;51.038;6.280;2024-01-10T14:11:05;21.27;;;10.07;;
25153;SDS011;47555;51.038;6.280;2024-01-10T14:13:31;19.25;;;10.25;;
25153;SDS011;47555;51.038;6.280;2024-01-10T14:15:57;20.83;;;9.63;;
25153;SDS011;47555;51.038;6.280;2024-01-10T14:18:23;22.27;;;9.82;;
25153;SDS011;47555;51.038;6.280;2024-01-10T14:20:49;19.08;;;9.45;;
25153;SDS011;47555;51.038;6.280;2024-01-10T14:23:15;21.67;;;9.82;;
25153;SDS011;47555;51.038;6.280;2024-01-10T14:25:42;22.13;;;9.68;;
25153;SDS011;47555;51.038;6.280;2024-01-10T14:28:08;20.10;;;10.55;;
25153;SDS011;47555;51.038;6.280;2024-01-10T14:30:34;19.73;;;9.40;;
25153;SDS011;47555;51.038;6.280;2024-01-10T14:33:00;19.13;;;9.50;;
25153;SDS011;47555;51.038;6.280;2024-01-10T14:35:29;19.38;;;9.65;;
25153;SDS011;47555;51.038;6.280;2024-01-10T14:37:55;21.45;;;9.32;;
25153;SDS011;47555;51.038;6.280;2024-01-10T14:40:21;18.23;;;9.60;;
25153;SDS011;47555;51.038;6.280;2024-01-10T14:42:48;19.95;;;9.95;;
25153;SDS011;47555;51.038;6.280;2024-01-10T14:45:14;18.00;;;8.80;;
25153;SDS011;47555;51.038;6.280;2024-01-10T14:47:40;20.67;;;9.88;;
25153;SDS011;47555;51.038;6.280;2024-01-10T14:50:06;21.67;;;10.40;;